Time;durP1;ratioP1;P1;durP2;ratioP2;P2;SDS_P1;SDS_P2;PMS_P1;PMS_P2;Temp;Humidity;BMP_temperature;BMP_pressure;BME280_temperature;BME280_humidity;BME280_pressure;Samples;Min_cycle;Max_cycle;Signal;HPM_P1;HPM_P2
2022/05/13 00:00:42;;;;;;;;;;;13.30;99.90;;;;;;5089595;28;19924;-80
2022/05/13 00:03:08;;;;;;;;;;;13.30;99.90;;;;;;5098684;28;19923;-79
2022/05/13 00:05:33;;;;;;;;;;;13.30;99.90;;;;;;5109545;28;19931;-79
2022/05/13 00:07:59;;;;;;;;;;;13.30;99.90;;;;;;5109848;28;19927;-80
2022/05/13 00:10:24;;;;;;;;;;;13.20;99.90;;;;;;5109439;28;19928;-79
2022/05/13 00:12:51;;;;;;;;;;;13.20;99.90;;;;;;5109609;28;19934;-79
2022/05/13 00:15:18;;;;;;;;;;;13.20;99.90;;;;;;5108874;28;19924;-79
2022/05/13 00:17:44;;;;;;;;;;;13.20;99.90;;;;;;5109159;28;19947;-80
2022/05/13 00:20:11;;;;;;;;;;;13.20;99.90;;;;;;5091050;28;20369;-79
2022/05/13 00:22:47;;;;;;;;;;;13.20;99.90;;;;;;5091544;28;19931;-79
2022/05/13 00:25:14;;;;;;;;;;;13.20;99.90;;;;;;5109344;28;19976;-79
2022/05/13 00:27:40;;;;;;;;;;;13.20;99.90;;;;;;5109010;28;19928;-79
2022/05/13 00:30:08;;;;;;;;;;;13.10;99.90;;;;;;5074628;28;19924;-79
2022/05/13 00:32:33;;;;;;;;;;;13.20;99.90;;;;;;5109073;28;19924;-79
2022/05/13 00:34:59;;;;;;;;;;;13.10;99.90;;;;;;5109569;28;20710;-79
2022/05/13 00:37:24;;;;;;;;;;;13.20;99.90;;;;;;5108918;28;19941;-79
2022/05/13 00:39:50;;;;;;;;;;;13.10;99.90;;;;;;5109274;28;19923;-79
2022/05/13 00:42:17;;;;;;;;;;;13.10;99.90;;;;;;5090785;28;20347;-80
2022/05/13 00:44:43;;;;;;;;;;;13.20;99.90;;;;;;5108947;28;19934;-79
2022/05/13 00:47:10;;;;;;;;;;;13.20;99.90;;;;;;5109107;28;20422;-79
2022/05/13 00:49:37;;;;;;;;;;;13.20;99.90;;;;;;5073946;28;19978;-79
2022/05/13 00:52:03;;;;;;;;;;;13.20;99.90;;;;;;5108764;28;19927;-80
2022/05/13 00:54:29;;;;;;;;;;;13.20;99.90;;;;;;5108656;28;19934;-79
2022/05/13 00:56:56;;;;;;;;;;;13.20;99.90;;;;;;5108908;28;19928;-80
2022/05/13 00:59:23;;;;;;;;;;;13.20;99.90;;;;;;5109039;28;19924;-79
2022/05/13 01:01:48;;;;;;;;;;;13.20;99.90;;;;;;5109091;28;19930;-79
2022/05/13 01:04:15;;;;;;;;;;;13.20;99.90;;;;;;5109145;28;19927;-79
2022/05/13 01:06:43;;;;;;;;;;;13.10;99.90;;;;;;5108467;28;19971;-79
2022/05/13 01:09:09;;;;;;;;;;;13.10;99.90;;;;;;5110622;28;19932;-80
2022/05/13 01:11:36;;;;;;;;;;;13.10;99.90;;;;;;5113177;28;19971;-79
2022/05/13 01:14:05;;;;;;;;;;;13.10;99.90;;;;;;5112447;28;19924;-80
2022/05/13 01:18:05;;;;;;;;;;;13.10;99.90;;;;;;5112658;28;20380;-79
2022/05/13 01:19:18;;;;;;;;;;;13.10;99.90;;;;;;5112915;28;19928;-79
2022/05/13 01:21:43;;;;;;;;;;;13.10;99.90;;;;;;5112986;28;19928;-80
2022/05/13 01:24:09;;;;;;;;;;;13.10;99.90;;;;;;5112279;28;20010;-79
2022/05/13 01:26:36;;;;;;;;;;;13.10;99.90;;;;;;5112502;28;19923;-79
2022/05/13 01:29:02;;;;;;;;;;;13.10;99.90;;;;;;5112742;28;19985;-79
2022/05/13 01:31:32;;;;;;;;;;;13.10;99.90;;;;;;5094406;28;19928;-79
2022/05/13 01:34:01;;;;;;;;;;;13.10;99.90;;;;;;5094066;28;19924;-79
2022/05/13 01:36:27;;;;;;;;;;;13.20;99.90;;;;;;5112141;28;20014;-80
2022/05/13 01:38:55;;;;;;;;;;;13.20;99.90;;;;;;5094217;28;20066;-79
2022/05/13 01:41:20;;;;;;;;;;;13.10;99.90;;;;;;5112365;28;19924;-79
2022/05/13 01:43:47;;;;;;;;;;;13.10;99.90;;;;;;5094252;28;19927;-79
2022/05/13 01:46:13;;;;;;;;;;;13.10;99.90;;;;;;5111821;28;19923;-79
2022/05/13 01:48:39;;;;;;;;;;;13.10;99.90;;;;;;5112296;28;19938;-79
2022/05/13 01:51:05;;;;;;;;;;;13.10;99.90;;;;;;5112369;28;19924;-79
2022/05/13 01:53:30;;;;;;;;;;;13.10;99.90;;;;;;5093535;28;20395;-79
2022/05/13 01:55:56;;;;;;;;;;;13.10;99.90;;;;;;5093927;28;20404;-79
2022/05/13 01:58:22;;;;;;;;;;;13.10;99.90;;;;;;5105491;28;20012;-80
2022/05/13 02:00:49;;;;;;;;;;;13.10;99.90;;;;;;5092754;28;19927;-79
2022/05/13 02:05:59;;;;;;;;;;;13.10;99.90;;;;;;5094109;28;19924;-79
2022/05/13 02:08:24;;;;;;;;;;;13.10;99.90;;;;;;5093202;28;19923;-79
2022/05/13 02:10:50;;;;;;;;;;;13.10;99.90;;;;;;5111898;28;19934;-79
2022/05/13 02:13:15;;;;;;;;;;;13.10;99.90;;;;;;5110509;28;19930;-79
2022/05/13 02:15:41;;;;;;;;;;;13.00;99.90;;;;;;5111716;28;20337;-79
2022/05/13 02:18:07;;;;;;;;;;;13.00;99.90;;;;;;5111495;28;19928;-78
2022/05/13 02:20:32;;;;;;;;;;;13.00;99.90;;;;;;5111043;28;19927;-79
2022/05/13 02:22:58;;;;;;;;;;;13.00;99.90;;;;;;5111267;28;19955;-79
2022/05/13 02:25:23;;;;;;;;;;;13.00;99.90;;;;;;5093736;28;19928;-79
2022/05/13 02:27:49;;;;;;;;;;;13.00;99.90;;;;;;5111978;28;20011;-79
2022/05/13 02:30:15;;;;;;;;;;;13.00;99.90;;;;;;5111411;28;19943;-79
2022/05/13 02:32:40;;;;;;;;;;;13.00;99.90;;;;;;5111626;28;20379;-79
2022/05/13 02:35:06;;;;;;;;;;;13.00;99.90;;;;;;5110986;28;19924;-79
2022/05/13 02:37:32;;;;;;;;;;;13.00;99.90;;;;;;5110996;28;19928;-79
2022/05/13 02:39:57;;;;;;;;;;;13.00;99.90;;;;;;5112169;28;19923;-79
2022/05/13 02:42:23;;;;;;;;;;;12.90;99.90;;;;;;5112245;28;19974;-79
2022/05/13 02:44:49;;;;;;;;;;;13.00;99.90;;;;;;5111666;28;19923;-79
2022/05/13 02:47:14;;;;;;;;;;;13.00;99.90;;;;;;5112166;28;19924;-79
2022/05/13 02:49:40;;;;;;;;;;;12.90;99.90;;;;;;5093822;28;20006;-80
2022/05/13 02:52:06;;;;;;;;;;;13.00;99.90;;;;;;5093555;28;19931;-79
2022/05/13 02:54:31;;;;;;;;;;;13.00;99.90;;;;;;5111864;28;19981;-80
2022/05/13 02:56:57;;;;;;;;;;;12.90;99.90;;;;;;5111516;28;19961;-79
2022/05/13 02:59:22;;;;;;;;;;;12.90;99.90;;;;;;5112036;28;19974;-79
2022/05/13 03:01:48;;;;;;;;;;;12.80;99.90;;;;;;5111931;28;19924;-80
2022/05/13 03:04:13;;;;;;;;;;;12.80;99.90;;;;;;5111812;28;19985;-79
2022/05/13 03:06:39;;;;;;;;;;;12.80;99.90;;;;;;5111939;28;19923;-79
2022/05/13 03:09:04;;;;;;;;;;;12.80;99.90;;;;;;5111692;28;20404;-79
2022/05/13 03:11:31;;;;;;;;;;;12.80;99.90;;;;;;5113469;28;19931;-79
2022/05/13 03:13:58;;;;;;;;;;;12.80;99.90;;;;;;5094695;28;19971;-79
2022/05/13 03:16:24;;;;;;;;;;;12.80;99.90;;;;;;5111636;28;19982;-79
2022/05/13 03:18:52;;;;;;;;;;;12.80;99.90;;;;;;5093013;28;20357;-79
2022/05/13 03:21:18;;;;;;;;;;;12.80;99.90;;;;;;5111364;28;19934;-79
2022/05/13 03:23:44;;;;;;;;;;;12.80;99.90;;;;;;5111677;28;20027;-79
2022/05/13 03:26:10;;;;;;;;;;;12.80;99.90;;;;;;5110881;28;19977;-79
2022/05/13 03:28:35;;;;;;;;;;;12.80;99.90;;;;;;5111066;28;20019;-79
2022/05/13 03:31:01;;;;;;;;;;;12.80;99.90;;;;;;5110469;28;19924;-79
2022/05/13 03:33:26;;;;;;;;;;;12.80;99.90;;;;;;5076440;28;20475;-79
2022/05/13 03:35:52;;;;;;;;;;;12.80;99.90;;;;;;5111116;28;19970;-79
2022/05/13 03:38:18;;;;;;;;;;;12.80;99.90;;;;;;5111096;28;19927;-79
2022/05/13 03:40:46;;;;;;;;;;;12.80;99.90;;;;;;5109961;28;19978;-79
2022/05/13 03:43:12;;;;;;;;;;;12.70;99.90;;;;;;5110361;28;19945;-79
2022/05/13 03:45:37;;;;;;;;;;;12.70;99.90;;;;;;5110727;28;19923;-79
2022/05/13 03:48:04;;;;;;;;;;;12.70;99.90;;;;;;5110711;28;20286;-79
2022/05/13 03:50:29;;;;;;;;;;;12.70;99.90;;;;;;5110328;28;19955;-79
2022/05/13 03:52:55;;;;;;;;;;;12.70;99.90;;;;;;5110990;28;19942;-81
2022/05/13 03:55:21;;;;;;;;;;;12.70;99.90;;;;;;5110620;28;20381;-79
2022/05/13 03:57:46;;;;;;;;;;;12.70;99.90;;;;;;5092505;28;20014;-79
2022/05/13 04:00:13;;;;;;;;;;;12.70;99.90;;;;;;5091879;28;20231;-79
2022/05/13 04:02:38;;;;;;;;;;;12.70;99.90;;;;;;5092424;28;19924;-79
2022/05/13 04:10:33;;;;;;;;;;;12.70;99.90;;;;;;5109983;28;20320;-79
2022/05/13 04:18:26;;;;;;;;;;;12.70;99.90;;;;;;5110101;28;19924;-79
2022/05/13 04:20:52;;;;;;;;;;;12.80;99.90;;;;;;5092532;28;19954;-79
2022/05/13 04:23:20;;;;;;;;;;;12.70;99.90;;;;;;5109921;28;19927;-79
2022/05/13 04:25:46;;;;;;;;;;;12.70;99.90;;;;;;5091962;28;19927;-79
2022/05/13 04:28:12;;;;;;;;;;;12.70;99.90;;;;;;5110364;28;19931;-79
2022/05/13 04:30:37;;;;;;;;;;;12.70;99.90;;;;;;5110322;28;20300;-79
2022/05/13 04:33:03;;;;;;;;;;;12.80;99.90;;;;;;5109977;28;19924;-80
2022/05/13 04:35:28;;;;;;;;;;;12.70;99.90;;;;;;5109970;28;19931;-79
2022/05/13 04:37:54;;;;;;;;;;;12.70;99.90;;;;;;5109985;28;19931;-79
2022/05/13 04:40:19;;;;;;;;;;;12.70;99.90;;;;;;5110215;28;19984;-79
2022/05/13 04:42:51;;;;;;;;;;;12.70;99.90;;;;;;5091545;28;19928;-79
2022/05/13 04:45:24;;;;;;;;;;;12.70;99.90;;;;;;5109529;28;19928;-79
2022/05/13 04:50:34;;;;;;;;;;;12.70;99.90;;;;;;5091602;28;20010;-79
2022/05/13 04:53:00;;;;;;;;;;;12.70;99.90;;;;;;5109964;28;20061;-80
2022/05/13 04:55:26;;;;;;;;;;;12.70;99.90;;;;;;5091480;28;19938;-79
2022/05/13 04:57:52;;;;;;;;;;;12.70;99.90;;;;;;5091683;28;19924;-79
2022/05/13 05:00:17;;;;;;;;;;;12.80;99.90;;;;;;5109666;28;20010;-79
2022/05/13 05:02:43;;;;;;;;;;;12.80;99.90;;;;;;5110153;28;19965;-79
2022/05/13 05:05:08;;;;;;;;;;;12.80;99.90;;;;;;5109664;28;20317;-79
2022/05/13 05:07:34;;;;;;;;;;;12.80;99.90;;;;;;5109267;28;19924;-79
2022/05/13 05:09:59;;;;;;;;;;;12.80;99.90;;;;;;5091044;28;19931;-79
2022/05/13 05:12:25;;;;;;;;;;;12.90;99.90;;;;;;5091474;28;20022;-79
2022/05/13 05:14:51;;;;;;;;;;;12.90;99.90;;;;;;5109598;28;19935;-79
2022/05/13 05:17:16;;;;;;;;;;;12.90;99.90;;;;;;5091480;28;20018;-79
2022/05/13 05:19:41;;;;;;;;;;;12.90;99.90;;;;;;5091461;28;20038;-79
2022/05/13 05:22:07;;;;;;;;;;;12.90;99.90;;;;;;5109479;28;19924;-79
2022/05/13 05:24:32;;;;;;;;;;;13.00;99.90;;;;;;5091815;28;19931;-79
2022/05/13 05:26:58;;;;;;;;;;;13.00;99.90;;;;;;5091127;28;20023;-79
2022/05/13 05:29:23;;;;;;;;;;;13.00;99.90;;;;;;5109818;28;20284;-79
2022/05/13 05:31:49;;;;;;;;;;;13.10;99.90;;;;;;5108877;28;19976;-79
2022/05/13 05:34:16;;;;;;;;;;;13.10;99.90;;;;;;5109648;28;20392;-80
2022/05/13 05:36:42;;;;;;;;;;;13.10;99.90;;;;;;5109368;28;19924;-79
2022/05/13 05:39:08;;;;;;;;;;;13.10;99.90;;;;;;5109505;28;19932;-79
2022/05/13 05:41:33;;;;;;;;;;;13.10;99.90;;;;;;5109317;28;19930;-80
2022/05/13 05:43:59;;;;;;;;;;;13.10;99.90;;;;;;5109400;28;19947;-79
2022/05/13 05:46:24;;;;;;;;;;;13.10;99.90;;;;;;5109077;28;19932;-79
2022/05/13 05:48:50;;;;;;;;;;;13.20;99.90;;;;;;5109704;28;19982;-77
2022/05/13 05:51:15;;;;;;;;;;;13.20;99.90;;;;;;5107357;28;20438;-78
2022/05/13 05:59:09;;;;;;;;;;;13.40;99.90;;;;;;5109909;28;19924;-78
2022/05/13 06:01:35;;;;;;;;;;;13.50;99.90;;;;;;5111725;28;20401;-78
2022/05/13 06:04:00;;;;;;;;;;;13.60;99.90;;;;;;5095227;28;19924;-78
2022/05/13 06:06:26;;;;;;;;;;;13.60;99.90;;;;;;5112708;28;19928;-79
2022/05/13 06:08:55;;;;;;;;;;;13.70;99.90;;;;;;5113093;28;19930;-78
2022/05/13 06:11:23;;;;;;;;;;;13.70;99.90;;;;;;5112927;28;19924;-79
2022/05/13 06:13:53;;;;;;;;;;;13.70;99.90;;;;;;5111051;28;19990;-78
2022/05/13 06:16:19;;;;;;;;;;;13.80;99.90;;;;;;5093938;28;20020;-78
2022/05/13 06:18:45;;;;;;;;;;;13.80;99.90;;;;;;5112730;28;19924;-78
2022/05/13 06:21:10;;;;;;;;;;;13.80;99.90;;;;;;5091684;28;20002;-79
2022/05/13 06:23:36;;;;;;;;;;;13.90;99.90;;;;;;5112606;28;20003;-79
2022/05/13 06:26:02;;;;;;;;;;;13.80;99.90;;;;;;5112469;28;20375;-79
2022/05/13 06:28:28;;;;;;;;;;;13.90;99.90;;;;;;5083288;28;19924;-78
2022/05/13 06:30:53;;;;;;;;;;;13.80;99.90;;;;;;5105778;28;19931;-78
2022/05/13 06:33:19;;;;;;;;;;;13.80;99.90;;;;;;5109803;28;20835;-79
2022/05/13 06:35:44;;;;;;;;;;;13.80;99.90;;;;;;5094230;28;20491;-79
2022/05/13 06:38:20;;;;;;;;;;;13.80;99.90;;;;;;5110442;28;19977;-78
2022/05/13 06:40:49;;;;;;;;;;;13.80;99.90;;;;;;5112034;28;20012;-78
2022/05/13 06:43:15;;;;;;;;;;;13.90;99.90;;;;;;5112274;28;19934;-78
2022/05/13 06:45:41;;;;;;;;;;;13.90;99.90;;;;;;5112229;28;19923;-78
2022/05/13 06:48:09;;;;;;;;;;;13.90;99.90;;;;;;5111628;28;21365;-78
2022/05/13 06:50:35;;;;;;;;;;;13.90;99.90;;;;;;5112438;28;20288;-78
2022/05/13 06:53:00;;;;;;;;;;;13.90;99.90;;;;;;5111858;28;19930;-78
2022/05/13 06:55:26;;;;;;;;;;;13.90;99.90;;;;;;5111887;28;19923;-78
2022/05/13 06:57:51;;;;;;;;;;;14.00;99.90;;;;;;5111409;28;19948;-79
2022/05/13 07:00:17;;;;;;;;;;;14.10;99.90;;;;;;5109849;28;19974;-78
2022/05/13 07:02:43;;;;;;;;;;;14.10;99.90;;;;;;5111529;28;19938;-78
2022/05/13 07:05:10;;;;;;;;;;;14.20;99.90;;;;;;5090018;28;20386;-78
2022/05/13 07:07:35;;;;;;;;;;;14.30;99.90;;;;;;5094133;28;19923;-78
2022/05/13 07:10:01;;;;;;;;;;;14.30;99.90;;;;;;5111864;28;20022;-78
2022/05/13 07:12:26;;;;;;;;;;;14.50;99.90;;;;;;5111678;28;19927;-78
2022/05/13 07:14:53;;;;;;;;;;;14.50;99.90;;;;;;5111996;28;19931;-79
2022/05/13 07:17:19;;;;;;;;;;;14.60;99.90;;;;;;5110923;28;20027;-79
2022/05/13 07:19:44;;;;;;;;;;;14.70;99.90;;;;;;5092783;28;20046;-79
2022/05/13 07:22:10;;;;;;;;;;;14.70;99.90;;;;;;5111412;28;19997;-79
2022/05/13 07:24:35;;;;;;;;;;;14.70;99.90;;;;;;5107903;28;19981;-79
2022/05/13 07:27:01;;;;;;;;;;;14.80;99.90;;;;;;5109650;28;19924;-79
2022/05/13 07:29:27;;;;;;;;;;;14.90;99.90;;;;;;5094448;28;19923;-79
2022/05/13 07:31:52;;;;;;;;;;;15.00;99.90;;;;;;5108667;28;19924;-79
2022/05/13 07:34:18;;;;;;;;;;;15.00;99.90;;;;;;5110600;28;19931;-79
2022/05/13 07:36:44;;;;;;;;;;;14.90;99.90;;;;;;5110403;28;19978;-86
2022/05/13 07:41:54;;;;;;;;;;;14.50;99.90;;;;;;5097930;28;19924;-78
2022/05/13 07:44:19;;;;;;;;;;;14.40;99.90;;;;;;5090490;28;19984;-78
2022/05/13 07:46:45;;;;;;;;;;;14.50;99.90;;;;;;5110248;28;19928;-78
2022/05/13 07:49:11;;;;;;;;;;;14.60;99.90;;;;;;5110567;28;19923;-78
2022/05/13 07:51:36;;;;;;;;;;;14.70;99.90;;;;;;5086477;28;19968;-79
2022/05/13 07:54:02;;;;;;;;;;;14.90;99.90;;;;;;5074375;28;19924;-79
2022/05/13 07:56:28;;;;;;;;;;;15.10;99.90;;;;;;5108590;28;19928;-76
2022/05/13 07:58:53;;;;;;;;;;;15.30;99.90;;;;;;5109590;28;19924;-79
2022/05/13 08:01:19;;;;;;;;;;;15.30;99.90;;;;;;5109004;28;20250;-79
2022/05/13 08:03:46;;;;;;;;;;;15.10;99.90;;;;;;5110501;28;19924;-79
2022/05/13 08:06:13;;;;;;;;;;;15.10;99.90;;;;;;5110526;28;20704;-79
2022/05/13 08:08:42;;;;;;;;;;;15.10;99.90;;;;;;5110819;28;19924;-79
2022/05/13 08:11:12;;;;;;;;;;;15.20;99.90;;;;;;5092126;28;20522;-78
2022/05/13 08:13:38;;;;;;;;;;;15.30;99.90;;;;;;5091744;28;19924;-79
2022/05/13 08:16:04;;;;;;;;;;;15.40;99.90;;;;;;5110306;28;20274;-79
2022/05/13 08:18:30;;;;;;;;;;;15.40;99.90;;;;;;5110191;28;20039;-79
2022/05/13 08:20:55;;;;;;;;;;;15.40;99.90;;;;;;5109910;28;20500;-79
2022/05/13 08:23:21;;;;;;;;;;;15.60;99.90;;;;;;5110025;28;19944;-78
2022/05/13 08:25:47;;;;;;;;;;;15.90;99.90;;;;;;5092246;28;20332;-79
2022/05/13 08:28:13;;;;;;;;;;;15.90;99.90;;;;;;5110125;28;19938;-79
2022/05/13 08:30:39;;;;;;;;;;;15.80;99.90;;;;;;5110103;28;19931;-79
2022/05/13 08:33:08;;;;;;;;;;;15.50;99.90;;;;;;5108809;28;19924;-79
2022/05/13 08:35:34;;;;;;;;;;;15.30;99.90;;;;;;5109946;28;19924;-79
2022/05/13 08:37:59;;;;;;;;;;;15.10;99.90;;;;;;5075179;28;19924;-79
2022/05/13 08:40:31;;;;;;;;;;;15.10;99.90;;;;;;5109804;28;19938;-78
2022/05/13 08:42:56;;;;;;;;;;;15.10;99.90;;;;;;5110031;28;19935;-79
2022/05/13 08:45:22;;;;;;;;;;;15.20;99.90;;;;;;5091030;28;19923;-78
2022/05/13 08:47:50;;;;;;;;;;;15.20;99.90;;;;;;5109829;28;20381;-79
2022/05/13 08:50:20;;;;;;;;;;;15.10;99.90;;;;;;5091603;28;19975;-78
2022/05/13 08:53:06;;;;;;;;;;;14.90;99.90;;;;;;5109638;28;19940;-79
2022/05/13 08:55:36;;;;;;;;;;;14.80;99.90;;;;;;5109710;28;20388;-79
2022/05/13 08:58:03;;;;;;;;;;;14.80;99.90;;;;;;5109810;28;19982;-78
2022/05/13 09:00:30;;;;;;;;;;;14.80;99.90;;;;;;5109566;28;19927;-78
2022/05/13 09:03:01;;;;;;;;;;;15.10;99.90;;;;;;5074715;28;20030;-79
2022/05/13 09:05:28;;;;;;;;;;;15.50;99.90;;;;;;5109890;28;20338;-79
2022/05/13 09:07:54;;;;;;;;;;;15.60;99.90;;;;;;5109892;28;20579;-78
2022/05/13 09:10:20;;;;;;;;;;;15.60;99.90;;;;;;5109804;28;19924;-79
2022/05/13 09:12:58;;;;;;;;;;;15.60;99.90;;;;;;5109599;28;20011;-79
2022/05/13 09:15:27;;;;;;;;;;;15.50;99.90;;;;;;5109708;28;19978;-79
2022/05/13 09:17:52;;;;;;;;;;;15.60;99.90;;;;;;5109889;28;19947;-78
2022/05/13 09:20:20;;;;;;;;;;;15.70;99.90;;;;;;5109581;28;20389;-79
2022/05/13 09:22:51;;;;;;;;;;;15.80;99.90;;;;;;5109205;28;20014;-79
2022/05/13 09:25:35;;;;;;;;;;;15.90;99.90;;;;;;5109512;28;20408;-79
2022/05/13 09:28:10;;;;;;;;;;;16.00;99.90;;;;;;5109602;28;19930;-79
2022/05/13 09:30:37;;;;;;;;;;;16.00;99.90;;;;;;5112168;28;19931;-79
2022/05/13 09:33:23;;;;;;;;;;;15.80;99.90;;;;;;5113266;28;19938;-78
2022/05/13 09:35:51;;;;;;;;;;;15.70;99.90;;;;;;5094852;28;19924;-79
2022/05/13 09:38:18;;;;;;;;;;;15.60;99.90;;;;;;5095209;28;19939;-79
2022/05/13 09:40:56;;;;;;;;;;;15.50;99.90;;;;;;5113304;28;19931;-79
2022/05/13 09:43:36;;;;;;;;;;;15.50;99.90;;;;;;5112826;28;19927;-79
2022/05/13 09:46:12;;;;;;;;;;;15.80;99.90;;;;;;5094829;28;20571;-79
2022/05/13 09:48:39;;;;;;;;;;;16.20;99.90;;;;;;5095165;28;19924;-78
2022/05/13 09:51:25;;;;;;;;;;;16.30;99.90;;;;;;5094542;28;19928;-79
2022/05/13 09:54:15;;;;;;;;;;;16.20;99.90;;;;;;5094509;28;19928;-79
2022/05/13 09:56:48;;;;;;;;;;;16.20;99.90;;;;;;5113213;28;20403;-78
2022/05/13 09:59:17;;;;;;;;;;;16.10;99.90;;;;;;5094857;28;19928;-79
2022/05/13 10:01:43;;;;;;;;;;;16.00;99.80;;;;;;5094444;28;19924;-79
2022/05/13 10:04:10;;;;;;;;;;;15.90;99.90;;;;;;5094514;28;19928;-79
2022/05/13 10:06:37;;;;;;;;;;;15.70;99.90;;;;;;5094785;28;19924;-79
2022/05/13 10:14:50;;;;;;;;;;;15.40;99.90;;;;;;5091551;28;19924;-79
2022/05/13 10:17:17;;;;;;;;;;;15.50;99.90;;;;;;5091162;28;19931;-79
2022/05/13 10:19:46;;;;;;;;;;;15.50;99.90;;;;;;5091199;28;19924;-79
2022/05/13 10:22:30;;;;;;;;;;;15.50;99.90;;;;;;5092480;28;20374;-79
2022/05/13 10:25:05;;;;;;;;;;;15.50;99.90;;;;;;5090483;28;20266;-79
2022/05/13 10:27:44;;;;;;;;;;;15.60;99.90;;;;;;5074051;28;19924;-79
2022/05/13 10:30:26;;;;;;;;;;;15.80;99.90;;;;;;5090906;28;20385;-80
2022/05/13 10:33:01;;;;;;;;;;;16.20;99.90;;;;;;5090653;28;19936;-79
2022/05/13 10:35:31;;;;;;;;;;;16.90;99.90;;;;;;5090616;28;19928;-80
2022/05/13 10:38:08;;;;;;;;;;;17.70;99.90;;;;;;5091972;28;20297;-79
2022/05/13 10:40:35;;;;;;;;;;;18.20;99.20;;;;;;5089934;28;19931;-77
2022/05/13 10:43:19;;;;;;;;;;;18.20;98.20;;;;;;5090966;28;20309;-77
2022/05/13 10:45:45;;;;;;;;;;;18.00;97.30;;;;;;5091636;28;19925;-77
2022/05/13 10:48:19;;;;;;;;;;;17.70;97.50;;;;;;5090264;28;20377;-77
2022/05/13 10:50:52;;;;;;;;;;;17.60;97.90;;;;;;5090328;28;20378;-77
2022/05/13 10:53:37;;;;;;;;;;;17.60;98.30;;;;;;5073631;28;19972;-77
2022/05/13 10:56:18;;;;;;;;;;;17.70;98.50;;;;;;5089998;28;20034;-77
2022/05/13 10:59:01;;;;;;;;;;;17.60;96.70;;;;;;5091498;28;19935;-77
2022/05/13 11:01:40;;;;;;;;;;;17.50;97.10;;;;;;5091243;28;19935;-77
2022/05/13 11:04:05;;;;;;;;;;;17.30;96.90;;;;;;5089979;28;19924;-77
2022/05/13 11:06:33;;;;;;;;;;;17.30;97.00;;;;;;5073275;28;19951;-77
2022/05/13 11:09:22;;;;;;;;;;;17.20;96.90;;;;;;5093716;28;19927;-78
2022/05/13 11:11:47;;;;;;;;;;;17.20;96.90;;;;;;5088332;28;20018;-78
2022/05/13 11:14:39;;;;;;;;;;;17.10;97.10;;;;;;5111178;28;19989;-78
2022/05/13 11:17:24;;;;;;;;;;;17.10;97.70;;;;;;5087826;28;19931;-78
2022/05/13 11:20:06;;;;;;;;;;;17.10;96.90;;;;;;5089593;28;20032;-78
2022/05/13 11:22:40;;;;;;;;;;;17.00;97.40;;;;;;5089461;28;20297;-78
2022/05/13 11:27:55;;;;;;;;;;;16.80;97.30;;;;;;5089966;28;19924;-78
2022/05/13 11:30:34;;;;;;;;;;;16.90;97.40;;;;;;5111042;28;19923;-78
2022/05/13 11:32:59;;;;;;;;;;;16.80;97.30;;;;;;5076084;28;20339;-78
2022/05/13 11:35:27;;;;;;;;;;;16.80;97.40;;;;;;5110579;28;19932;-78
2022/05/13 11:37:57;;;;;;;;;;;16.70;97.30;;;;;;5092772;28;19931;-77
2022/05/13 11:40:30;;;;;;;;;;;16.60;97.00;;;;;;5111100;28;19924;-78
2022/05/13 11:43:19;;;;;;;;;;;16.60;97.30;;;;;;5111069;28;19958;-78
2022/05/13 11:45:56;;;;;;;;;;;16.50;97.50;;;;;;5110799;28;19924;-78
2022/05/13 11:48:25;;;;;;;;;;;16.50;97.80;;;;;;5092178;28;19924;-78
2022/05/13 11:50:50;;;;;;;;;;;16.60;97.90;;;;;;5092311;28;19930;-78
2022/05/13 11:53:52;;;;;;;;;;;16.80;98.00;;;;;;5109889;28;19924;-78
2022/05/13 11:56:17;;;;;;;;;;;17.00;97.90;;;;;;5007541;28;19952;-78
2022/05/13 11:58:48;;;;;;;;;;;17.20;97.60;;;;;;5071169;28;20270;-78
2022/05/13 12:01:14;;;;;;;;;;;17.30;96.80;;;;;;5110382;28;20331;-78
2022/05/13 12:03:40;;;;;;;;;;;17.30;96.30;;;;;;5091968;28;19924;-78
2022/05/13 12:06:10;;;;;;;;;;;17.40;96.30;;;;;;5109762;28;19931;-78
2022/05/13 12:08:40;;;;;;;;;;;17.50;96.10;;;;;;5092507;28;20003;-78
2022/05/13 12:11:16;;;;;;;;;;;17.60;96.30;;;;;;5092166;28;19935;-78
2022/05/13 12:13:41;;;;;;;;;;;17.50;95.90;;;;;;5092333;28;19924;-78
2022/05/13 12:16:12;;;;;;;;;;;17.50;96.10;;;;;;5110026;28;19927;-78
2022/05/13 12:18:38;;;;;;;;;;;17.50;96.30;;;;;;5091464;28;20458;-78
2022/05/13 12:21:10;;;;;;;;;;;17.40;96.40;;;;;;5075204;28;19923;-78
2022/05/13 12:23:40;;;;;;;;;;;17.30;96.50;;;;;;5092455;28;20457;-78
2022/05/13 12:26:07;;;;;;;;;;;17.30;96.90;;;;;;5075205;28;19924;-78
2022/05/13 12:28:41;;;;;;;;;;;17.40;97.20;;;;;;5109562;28;20385;-78
2022/05/13 12:31:16;;;;;;;;;;;17.40;96.60;;;;;;5110233;28;19931;-78
2022/05/13 12:33:48;;;;;;;;;;;17.30;96.70;;;;;;5075294;28;20324;-78
2022/05/13 12:39:41;;;;;;;;;;;17.30;97.10;;;;;;5058468;28;19924;-78
2022/05/13 12:42:09;;;;;;;;;;;17.30;97.70;;;;;;5091580;28;19928;-78
2022/05/13 12:44:34;;;;;;;;;;;17.30;97.70;;;;;;5110254;28;19928;-78
2022/05/13 12:47:15;;;;;;;;;;;17.40;97.70;;;;;;5109975;28;19923;-78
2022/05/13 12:50:04;;;;;;;;;;;17.30;97.00;;;;;;5109597;28;19930;-78
2022/05/13 12:52:32;;;;;;;;;;;17.40;97.10;;;;;;5063092;28;20389;-78
2022/05/13 12:55:04;;;;;;;;;;;17.60;95.70;;;;;;5075092;28;19971;-78
2022/05/13 12:57:33;;;;;;;;;;;17.60;94.60;;;;;;5091700;28;20376;-79
2022/05/13 12:59:58;;;;;;;;;;;17.70;94.60;;;;;;5109745;28;19930;-78
2022/05/13 13:02:27;;;;;;;;;;;18.00;95.10;;;;;;5091252;28;19924;-78
2022/05/13 13:05:19;;;;;;;;;;;18.30;94.60;;;;;;5094929;28;19924;-78
2022/05/13 13:07:44;;;;;;;;;;;18.30;94.00;;;;;;5072364;28;20274;-78
2022/05/13 13:10:15;;;;;;;;;;;18.10;93.60;;;;;;5095560;28;19924;-78
2022/05/13 13:12:42;;;;;;;;;;;18.00;93.90;;;;;;5114138;28;19924;-78
2022/05/13 13:15:13;;;;;;;;;;;18.30;93.80;;;;;;5113555;28;20015;-78
2022/05/13 13:17:58;;;;;;;;;;;18.70;93.90;;;;;;5095546;28;19924;-78
2022/05/13 13:20:26;;;;;;;;;;;19.10;92.90;;;;;;5092029;28;20408;-78
2022/05/13 13:22:52;;;;;;;;;;;19.50;93.00;;;;;;5092195;28;19975;-78
2022/05/13 13:25:24;;;;;;;;;;;19.80;91.30;;;;;;5093130;28;19924;-78
2022/05/13 13:27:51;;;;;;;;;;;19.80;91.30;;;;;;5093229;28;19924;-78
2022/05/13 13:30:18;;;;;;;;;;;19.80;91.50;;;;;;5091998;28;19930;-79
2022/05/13 13:32:46;;;;;;;;;;;20.10;90.10;;;;;;5091996;28;19924;-78
2022/05/13 13:35:11;;;;;;;;;;;19.90;88.40;;;;;;5092499;28;20421;-78
2022/05/13 13:37:38;;;;;;;;;;;19.80;90.20;;;;;;5093096;28;19931;-78
2022/05/13 13:40:13;;;;;;;;;;;19.60;88.60;;;;;;5075246;28;20389;-79
2022/05/13 13:42:39;;;;;;;;;;;19.40;86.80;;;;;;5092358;28;20001;-78
2022/05/13 13:45:21;;;;;;;;;;;19.60;88.80;;;;;;5091645;28;19924;-78
2022/05/13 13:47:48;;;;;;;;;;;19.80;88.90;;;;;;5091764;28;20416;-79
2022/05/13 13:50:15;;;;;;;;;;;20.30;88.40;;;;;;5091994;28;19968;-79
2022/05/13 13:52:41;;;;;;;;;;;20.90;86.50;;;;;;5090980;28;19969;-78
2022/05/13 13:55:13;;;;;;;;;;;21.20;83.00;;;;;;5093041;28;19924;-79
2022/05/13 13:57:54;;;;;;;;;;;21.10;80.20;;;;;;5092869;28;19932;-79
2022/05/13 14:00:36;;;;;;;;;;;20.70;80.40;;;;;;5092530;28;19928;-79
2022/05/13 14:03:02;;;;;;;;;;;20.30;82.30;;;;;;5092548;28;19924;-79
2022/05/13 14:05:32;;;;;;;;;;;20.00;82.20;;;;;;5092765;28;20511;-79
2022/05/13 14:07:58;;;;;;;;;;;19.70;81.20;;;;;;5091036;28;19942;-78
2022/05/13 14:10:43;;;;;;;;;;;19.30;81.30;;;;;;5091794;28;19924;-78
2022/05/13 14:13:10;;;;;;;;;;;18.90;82.10;;;;;;5090855;28;20015;-78
2022/05/13 14:15:39;;;;;;;;;;;18.60;83.10;;;;;;5090754;28;19931;-78
2022/05/13 14:18:05;;;;;;;;;;;18.50;83.80;;;;;;5091117;28;19928;-78
2022/05/13 14:20:36;;;;;;;;;;;18.40;83.90;;;;;;5076652;28;20411;-79
2022/05/13 14:23:10;;;;;;;;;;;18.20;83.50;;;;;;5111968;28;19923;-78
2022/05/13 14:25:41;;;;;;;;;;;18.10;84.80;;;;;;5094575;28;19924;-78
2022/05/13 14:28:07;;;;;;;;;;;18.10;84.80;;;;;;5093628;28;19925;-79
2022/05/13 14:30:33;;;;;;;;;;;18.00;84.70;;;;;;5094108;28;19970;-79
2022/05/13 14:32:59;;;;;;;;;;;18.00;85.90;;;;;;5112462;28;20012;-78
2022/05/13 14:35:34;;;;;;;;;;;17.90;86.70;;;;;;5112432;28;19930;-78
2022/05/13 14:38:02;;;;;;;;;;;17.90;87.60;;;;;;5093940;28;20018;-78
2022/05/13 14:40:42;;;;;;;;;;;18.00;89.00;;;;;;5094283;28;20388;-78
2022/05/13 14:43:10;;;;;;;;;;;18.00;87.20;;;;;;5112294;28;20061;-78
2022/05/13 14:45:38;;;;;;;;;;;17.90;87.10;;;;;;5112123;28;19931;-78
2022/05/13 14:48:18;;;;;;;;;;;17.90;86.70;;;;;;5076880;28;19971;-78
2022/05/13 14:50:45;;;;;;;;;;;18.10;87.50;;;;;;5093761;28;19924;-78
2022/05/13 14:53:17;;;;;;;;;;;18.20;88.30;;;;;;5112222;28;20282;-78
2022/05/13 14:55:45;;;;;;;;;;;18.30;88.60;;;;;;5093832;28;19931;-78
2022/05/13 14:58:17;;;;;;;;;;;18.20;87.30;;;;;;5093420;28;19923;-79
2022/05/13 15:00:47;;;;;;;;;;;18.10;86.80;;;;;;5094311;28;19924;-78